Terminal Aerodrome Forecast
Issued by NWS Pendleton, OR

Home | Current Version | Previous Version | Text Only | Print | Product List | Glossary On
Versions: 1 2 3 4 5 6 7 8 9 10 11 12
343
FTUS46 KPDT 262320
TAFPDT
TAF
KPDT 262320Z 2700/2724 35007KT P6SM SKC
     FM270400 15005KT P6SM SKC
     FM271700 30009KT P6SM SCT120=

USA.gov is the U.S. government's official web portal to all federal, state and local government web resources and services.